createdAt,value
2019-04-01T00:00:34.743Z,4.00
2019-04-01T00:01:34.756Z,4.00
2019-04-01T00:02:34.814Z,4.00
2019-04-01T00:03:34.769Z,4.00
2019-04-01T00:04:34.804Z,4.00
2019-04-01T00:05:35.302Z,4.00
2019-04-01T00:06:34.972Z,4.00
2019-04-01T00:07:34.818Z,4.00
2019-04-01T00:08:34.830Z,4.00
2019-04-01T00:09:34.852Z,4.00
2019-04-01T00:10:34.839Z,4.00
2019-04-01T00:11:34.920Z,4.00
2019-04-01T00:12:34.858Z,4.00
2019-04-01T00:13:34.876Z,4.00
2019-04-01T00:14:34.881Z,4.00
2019-04-01T00:15:34.890Z,4.00
2019-04-01T00:16:34.897Z,4.00
2019-04-01T00:17:35.164Z,4.00
2019-04-01T00:18:34.967Z,4.00
2019-04-01T00:19:34.926Z,4.00
2019-04-01T00:20:34.942Z,4.00
2019-04-01T00:21:34.946Z,4.00
2019-04-01T00:22:34.978Z,4.00
2019-04-01T00:23:34.963Z,4.00
2019-04-01T00:24:35.000Z,4.00
2019-04-01T00:25:35.019Z,4.00
2019-04-01T00:26:34.998Z,4.00
2019-04-01T00:27:35.035Z,4.00
2019-04-01T00:28:35.063Z,4.00
2019-04-01T00:29:35.025Z,4.00
2019-04-01T00:30:35.033Z,4.00
2019-04-01T00:31:35.057Z,4.00
2019-04-01T00:32:35.058Z,4.00
2019-04-01T00:33:35.065Z,4.00
2019-04-01T00:34:35.083Z,4.00
2019-04-01T00:35:35.083Z,4.00
2019-04-01T00:36:35.131Z,4.00
2019-04-01T00:37:35.103Z,4.00
2019-04-01T00:38:35.109Z,4.00
2019-04-01T00:40:35.131Z,4.00
2019-04-01T00:41:35.141Z,4.00
2019-04-01T00:42:35.215Z,4.00
2019-04-01T00:43:35.171Z,4.00
2019-04-01T00:44:35.175Z,4.00
2019-04-01T00:46:35.188Z,4.00
2019-04-01T00:47:35.300Z,4.00
2019-04-01T00:48:35.209Z,4.00
2019-04-01T00:49:35.218Z,4.00
2019-04-01T00:50:35.895Z,4.00
2019-04-01T00:51:35.265Z,4.00
2019-04-01T00:52:35.686Z,4.00
2019-04-01T00:53:35.251Z,4.00
2019-04-01T00:55:35.413Z,4.00
2019-04-01T00:56:35.352Z,4.00
2019-04-01T00:57:35.292Z,4.00
2019-04-01T00:58:35.300Z,4.00
2019-04-01T00:59:35.315Z,4.00
2019-04-01T01:00:35.329Z,4.00
2019-04-01T01:01:35.697Z,4.00
2019-04-01T01:02:35.350Z,4.00
2019-04-01T01:03:35.349Z,4.00
2019-04-01T01:04:35.373Z,4.00
2019-04-01T01:05:35.367Z,4.00
2019-04-01T01:06:35.376Z,4.00
2019-04-01T01:07:35.383Z,4.00
2019-04-01T01:08:35.411Z,4.00
2019-04-01T01:09:35.741Z,4.00
2019-04-01T01:10:35.438Z,4.00
2019-04-01T01:11:35.422Z,4.00
2019-04-01T01:12:35.432Z,4.00
2019-04-01T01:13:35.445Z,4.00
2019-04-01T01:14:35.478Z,4.00
2019-04-01T01:15:35.581Z,4.00
2019-04-01T01:16:35.467Z,4.00
2019-04-01T01:17:35.486Z,4.00
2019-04-01T01:18:35.488Z,4.00
2019-04-01T01:19:35.560Z,4.00
2019-04-01T01:21:36.298Z,4.00
2019-04-01T01:22:35.549Z,4.00
2019-04-01T01:23:35.539Z,4.00
2019-04-01T01:24:35.541Z,4.00
2019-04-01T01:25:35.558Z,4.00
2019-04-01T01:26:35.596Z,4.00
2019-04-01T01:27:35.616Z,4.00
2019-04-01T01:28:35.620Z,4.00
2019-04-01T01:29:35.591Z,4.00
2019-04-01T01:30:35.601Z,4.00
2019-04-01T01:31:35.611Z,4.00
2019-04-01T01:32:35.624Z,4.00
2019-04-01T01:33:35.630Z,4.00
2019-04-01T01:34:35.640Z,4.00
2019-04-01T01:35:35.649Z,4.00
2019-04-01T01:36:35.664Z,4.00
2019-04-01T01:37:35.675Z,4.00
2019-04-01T01:38:35.681Z,4.00
2019-04-01T01:39:35.709Z,4.00
2019-04-01T01:40:35.693Z,4.00
2019-04-01T01:41:35.701Z,4.00
2019-04-01T01:42:35.726Z,4.00
2019-04-01T01:43:35.729Z,4.00
2019-04-01T01:44:35.730Z,4.00
2019-04-01T01:45:35.741Z,4.00
2019-04-01T01:46:35.784Z,4.00
2019-04-01T01:47:36.189Z,4.00
2019-04-01T01:48:35.867Z,4.00
2019-04-01T01:49:35.834Z,4.00
2019-04-01T01:50:35.856Z,4.00
2019-04-01T01:51:35.899Z,4.00
2019-04-01T01:52:35.914Z,4.00
2019-04-01T01:53:35.857Z,4.00
2019-04-01T01:54:35.852Z,4.00
2019-04-01T01:55:35.870Z,4.00
2019-04-01T01:56:36.234Z,4.00
2019-04-01T01:57:35.918Z,4.00
2019-04-01T02:00:35.897Z,4.00
2019-04-01T02:01:35.897Z,0.00
2019-04-01T02:02:35.901Z,0.00
2019-04-01T02:03:35.909Z,4.00
2019-04-01T02:04:35.919Z,0.00
2019-04-01T02:05:35.958Z,4.00
2019-04-01T02:06:36.031Z,0.00
2019-04-01T02:07:35.959Z,0.00
2019-04-01T02:09:35.966Z,0.00
2019-04-01T02:10:36.248Z,0.00
2019-04-01T02:11:36.027Z,0.00
2019-04-01T02:12:36.002Z,0.00
2019-04-01T02:13:36.009Z,0.00
2019-04-01T02:14:36.010Z,0.00
2019-04-01T02:15:36.023Z,0.00
2019-04-01T02:16:36.031Z,4.00
2019-04-01T02:17:36.043Z,0.00
2019-04-01T02:18:36.052Z,0.00
2019-04-01T02:19:36.138Z,0.00
2019-04-01T02:20:36.071Z,0.00
2019-04-01T02:21:36.076Z,0.00
2019-04-01T02:22:36.088Z,0.00
2019-04-01T02:23:36.106Z,0.00
2019-04-01T02:24:36.146Z,0.00
2019-04-01T02:25:36.114Z,0.00
2019-04-01T02:27:36.273Z,0.00
2019-04-01T02:28:36.296Z,0.00
2019-04-01T02:30:36.803Z,0.00
2019-04-01T02:31:36.163Z,0.00
2019-04-01T02:32:36.180Z,0.00
2019-04-01T02:33:36.198Z,0.00
2019-04-01T02:34:36.191Z,0.00
2019-04-01T02:35:37.012Z,0.00
2019-04-01T02:36:36.228Z,0.00
2019-04-01T02:37:36.349Z,0.00
2019-04-01T02:38:36.278Z,0.00
2019-04-01T02:39:36.254Z,0.00
2019-04-01T02:40:36.253Z,0.00
2019-04-01T02:41:36.262Z,0.00
2019-04-01T02:42:36.275Z,0.00
2019-04-01T02:43:36.277Z,0.00
2019-04-01T02:46:36.314Z,0.00
2019-04-01T02:47:36.320Z,0.00
2019-04-01T02:48:36.319Z,0.00
2019-04-01T02:51:36.655Z,0.00
2019-04-01T02:52:36.386Z,0.00
2019-04-01T02:53:36.373Z,0.00
2019-04-01T02:54:36.389Z,0.00
2019-04-01T02:55:36.385Z,0.00
2019-04-01T02:56:36.394Z,0.00
2019-04-01T02:57:36.419Z,0.00
2019-04-01T02:58:36.417Z,0.00
2019-04-01T02:59:36.428Z,0.00
2019-04-01T03:00:36.437Z,0.00
2019-04-01T03:01:36.449Z,0.00
2019-04-01T03:02:36.446Z,0.00
2019-04-01T03:03:36.467Z,0.00
2019-04-01T03:04:36.467Z,0.00
2019-04-01T03:05:36.476Z,0.00
2019-04-01T03:06:36.483Z,0.00
2019-04-01T03:07:36.499Z,0.00
2019-04-01T03:08:36.509Z,0.00
2019-04-01T03:09:36.510Z,0.00
2019-04-01T03:10:36.552Z,0.00
2019-04-01T03:11:36.535Z,0.00
2019-04-01T03:12:36.545Z,0.00
2019-04-01T03:13:36.556Z,0.00
2019-04-01T03:14:37.138Z,0.00
2019-04-01T03:15:37.466Z,0.00
2019-04-01T03:16:37.072Z,0.00
2019-04-01T03:18:36.599Z,0.00
2019-04-01T03:21:36.741Z,0.00
2019-04-01T03:22:36.803Z,0.00
2019-04-01T03:23:36.824Z,0.00
2019-04-01T03:24:37.221Z,0.00
2019-04-01T03:25:36.675Z,0.00
2019-04-01T03:26:36.723Z,0.00
2019-04-01T03:27:36.677Z,0.00
2019-04-01T03:29:36.720Z,0.00
2019-04-01T03:30:36.711Z,0.00
2019-04-01T03:31:36.710Z,0.00
2019-04-01T03:32:44.306Z,0.00
2019-04-01T03:33:36.752Z,0.00
2019-04-01T03:34:36.739Z,0.00
2019-04-01T03:35:36.752Z,0.00
2019-04-01T03:36:36.754Z,0.00
2019-04-01T03:37:36.776Z,0.00
2019-04-01T03:38:36.779Z,0.00
2019-04-01T03:39:36.782Z,0.00
2019-04-01T03:40:36.792Z,0.00
2019-04-01T03:41:36.809Z,0.00
2019-04-01T03:42:36.812Z,0.00
2019-04-01T03:43:36.824Z,0.00
2019-04-01T03:44:36.971Z,0.00
2019-04-01T03:45:36.838Z,0.00
2019-04-01T03:46:36.984Z,0.00
2019-04-01T03:47:36.898Z,0.00
2019-04-01T03:48:36.867Z,0.00
2019-04-01T03:49:36.885Z,4.00
2019-04-01T03:50:37.281Z,0.00
2019-04-01T03:51:37.059Z,0.00
2019-04-01T03:52:36.899Z,0.00
2019-04-01T03:53:36.945Z,0.00
2019-04-01T03:54:36.928Z,0.00
2019-04-01T03:55:36.937Z,0.00
2019-04-01T03:56:36.959Z,0.00
2019-04-01T03:57:36.946Z,0.00
2019-04-01T03:58:36.969Z,0.00
2019-04-01T03:59:36.960Z,0.00
2019-04-01T04:00:37.233Z,4.00
2019-04-01T04:01:37.394Z,4.00
2019-04-01T04:02:37.003Z,4.00
2019-04-01T04:03:37.059Z,4.00
2019-04-01T04:04:37.013Z,4.00
2019-04-01T04:05:37.032Z,4.00
2019-04-01T04:06:37.027Z,4.00
2019-04-01T04:07:37.040Z,4.00
2019-04-01T04:08:37.060Z,4.00
2019-04-01T04:09:37.081Z,4.00
2019-04-01T04:10:37.080Z,4.00
2019-04-01T04:12:37.139Z,4.00
2019-04-01T04:13:37.316Z,4.00
2019-04-01T04:16:37.142Z,4.00
2019-04-01T04:17:37.895Z,4.00
2019-04-01T04:18:37.133Z,4.00
2019-04-01T04:19:37.145Z,4.00
2019-04-01T04:20:37.203Z,4.00
2019-04-01T04:21:37.164Z,4.00
2019-04-01T04:22:37.175Z,4.00
2019-04-01T04:23:37.181Z,4.00
2019-04-01T04:24:37.237Z,4.00
2019-04-01T04:25:37.200Z,4.00
2019-04-01T04:26:37.213Z,4.00
2019-04-01T04:27:37.264Z,4.00
2019-04-01T04:28:37.224Z,4.00
2019-04-01T04:29:37.242Z,4.00
2019-04-01T04:30:37.241Z,4.00
2019-04-01T04:31:37.265Z,4.00
2019-04-01T04:32:37.577Z,4.00
2019-04-01T04:33:37.335Z,4.00
2019-04-01T04:34:37.353Z,0.00
2019-04-01T04:35:37.597Z,4.00
2019-04-01T04:36:37.297Z,4.00
2019-04-01T04:37:37.449Z,4.00
2019-04-01T04:38:37.338Z,4.00
2019-04-01T04:40:40.743Z,4.00
2019-04-01T04:41:38.323Z,4.00
2019-04-01T04:42:37.533Z,8.00
2019-04-01T04:43:38.313Z,4.00
2019-04-01T04:44:37.606Z,8.00
2019-04-01T04:45:37.526Z,8.00
2019-04-01T04:46:38.080Z,8.00
2019-04-01T04:47:37.632Z,8.00
2019-04-01T04:48:37.666Z,8.00
2019-04-01T04:49:37.432Z,12.00
2019-04-01T04:50:38.335Z,12.00
2019-04-01T04:51:38.103Z,12.00
2019-04-01T04:53:38.040Z,20.00
2019-04-01T04:54:37.600Z,20.00
2019-04-01T04:55:37.517Z,24.00
2019-04-01T04:56:38.096Z,28.00
2019-04-01T04:57:37.481Z,36.00
2019-04-01T04:58:37.693Z,36.00
2019-04-01T04:59:37.584Z,40.00
2019-04-01T05:00:37.616Z,48.00
2019-04-01T05:01:37.551Z,52.00
2019-04-01T05:02:37.771Z,60.00
2019-04-01T05:04:37.823Z,76.00
2019-04-01T05:05:38.612Z,84.00
2019-04-01T05:06:38.526Z,92.00
2019-04-01T05:07:40.965Z,96.00
2019-04-01T05:10:37.928Z,132.00
2019-04-01T05:13:38.117Z,160.00
2019-04-01T05:14:37.632Z,172.00
2019-04-01T05:15:37.648Z,188.00
2019-04-01T05:16:37.697Z,200.00
2019-04-01T05:17:37.660Z,212.00
2019-04-01T05:18:37.664Z,224.00
2019-04-01T05:19:37.675Z,240.00
2019-04-01T05:20:37.682Z,256.00
2019-04-01T05:21:37.723Z,272.00
2019-04-01T05:22:37.699Z,288.00
2019-04-01T05:23:37.736Z,304.00
2019-04-01T05:24:37.718Z,320.00
2019-04-01T05:25:38.037Z,340.00
2019-04-01T05:26:37.741Z,356.00
2019-04-01T05:27:37.750Z,372.00
2019-04-01T05:28:37.793Z,392.00
2019-04-01T05:29:37.754Z,412.00
2019-04-01T05:30:37.811Z,428.00
2019-04-01T05:31:37.773Z,444.00
2019-04-01T05:32:37.782Z,460.00
2019-04-01T05:34:39.817Z,500.00
2019-04-01T05:36:38.101Z,536.00
2019-04-01T05:38:37.836Z,576.00
2019-04-01T05:39:37.844Z,592.00
2019-04-01T05:40:37.854Z,612.00
2019-04-01T05:41:37.870Z,632.00
2019-04-01T05:42:37.876Z,648.00
2019-04-01T05:43:37.942Z,672.00
2019-04-01T05:44:37.904Z,692.00
2019-04-01T05:45:38.009Z,708.00
2019-04-01T05:47:37.912Z,756.00
2019-04-01T05:48:37.925Z,772.00
2019-04-01T05:49:37.958Z,792.00
2019-04-01T05:50:37.971Z,808.00
2019-04-01T05:51:37.954Z,832.00
2019-04-01T05:52:37.961Z,856.00
2019-04-01T05:53:38.270Z,876.00
2019-04-01T05:55:37.995Z,924.00
2019-04-01T05:57:38.358Z,972.00
2019-04-01T05:58:38.051Z,984.00
2019-04-01T05:59:38.067Z,1004.00
2019-04-01T06:00:38.029Z,1040.00
2019-04-01T06:01:38.054Z,1108.00
2019-04-01T06:03:38.064Z,1264.00
2019-04-01T06:04:38.087Z,1348.00
2019-04-01T06:05:38.304Z,1224.00
2019-04-01T06:06:38.302Z,1176.00
2019-04-01T06:07:38.134Z,1168.00
2019-04-01T06:08:38.109Z,1192.00
2019-04-01T06:11:39.291Z,1240.00
2019-04-01T06:12:38.359Z,1264.00
2019-04-01T06:13:38.279Z,1284.00
2019-04-01T06:14:38.706Z,1308.00
2019-04-01T06:15:39.221Z,1332.00
2019-04-01T06:16:39.360Z,1388.00
2019-04-01T06:17:38.596Z,1512.00
2019-04-01T06:18:38.197Z,1596.00
2019-04-01T06:19:38.593Z,1548.00
2019-04-01T06:20:38.205Z,1424.00
2019-04-01T06:21:38.956Z,1456.00
2019-04-01T06:22:38.288Z,1468.00
2019-04-01T06:23:38.496Z,1476.00
2019-04-01T06:24:40.454Z,1492.00
2019-04-01T06:25:38.277Z,1520.00
2019-04-01T06:26:38.308Z,1588.00
2019-04-01T06:27:38.293Z,1788.00
2019-04-01T06:28:38.851Z,1868.00
2019-04-01T06:29:38.345Z,1764.00
2019-04-01T06:31:41.898Z,1640.00
2019-04-01T06:32:38.508Z,1776.00
2019-04-01T06:36:38.995Z,1924.00
2019-04-01T06:37:39.316Z,1864.00
2019-04-01T06:39:39.243Z,1784.00
2019-04-01T06:40:38.887Z,1780.00
2019-04-01T06:41:39.071Z,1800.00
2019-04-01T06:42:38.754Z,1788.00
2019-04-01T06:43:38.417Z,1796.00
2019-04-01T06:44:38.420Z,1820.00
2019-04-01T06:45:38.483Z,1836.00
2019-04-01T06:46:39.032Z,1852.00
2019-04-01T06:47:38.564Z,1872.00
2019-04-01T06:48:38.485Z,1892.00
2019-04-01T06:49:38.465Z,1908.00
2019-04-01T06:50:38.480Z,1924.00
2019-04-01T06:51:38.494Z,1944.00
2019-04-01T06:52:38.506Z,1964.00
2019-04-01T06:53:38.581Z,1976.00
2019-04-01T06:54:38.513Z,1996.00
2019-04-01T06:55:46.151Z,2016.00
2019-04-01T06:56:38.573Z,2032.00
2019-04-01T06:57:38.670Z,2048.00
2019-04-01T06:58:39.071Z,2060.00
2019-04-01T06:59:39.737Z,2072.00
2019-04-01T07:00:38.848Z,2096.00
2019-04-01T07:01:38.582Z,2116.00
2019-04-01T07:02:38.918Z,2128.00
2019-04-01T07:03:39.437Z,2144.00
2019-04-01T07:04:39.454Z,2160.00
2019-04-01T07:05:38.651Z,2180.00
2019-04-01T07:06:38.770Z,2196.00
2019-04-01T07:07:38.642Z,2212.00
2019-04-01T07:08:38.664Z,2228.00
2019-04-01T07:09:39.382Z,2244.00
2019-04-01T07:10:38.680Z,2260.00
2019-04-01T07:11:39.065Z,2276.00
2019-04-01T07:12:38.687Z,2288.00
2019-04-01T07:13:40.223Z,2308.00
2019-04-01T07:14:38.721Z,2324.00
2019-04-01T07:15:38.720Z,2348.00
2019-04-01T07:17:39.088Z,2372.00
2019-04-01T07:18:39.841Z,2392.00
2019-04-01T07:20:39.025Z,2424.00
2019-04-01T07:21:38.869Z,2444.00
2019-04-01T07:23:42.220Z,2472.00
2019-04-01T07:24:39.799Z,2488.00
2019-04-01T07:25:38.816Z,2520.00
2019-04-01T07:26:38.825Z,2532.00
2019-04-01T07:27:38.851Z,2532.00
2019-04-01T07:28:38.926Z,2552.00
2019-04-01T07:29:38.881Z,2572.00
2019-04-01T07:30:41.836Z,2584.00
2019-04-01T07:31:38.869Z,2608.00
2019-04-01T07:32:38.881Z,2620.00
2019-04-01T07:33:39.354Z,2636.00
2019-04-01T07:34:38.940Z,2652.00
2019-04-01T07:35:38.923Z,2676.00
2019-04-01T07:36:38.916Z,2692.00
2019-04-01T07:37:39.325Z,2712.00
2019-04-01T07:38:39.751Z,2732.00
2019-04-01T07:39:39.295Z,2748.00
2019-04-01T07:40:39.006Z,2760.00
2019-04-01T07:45:39.004Z,2840.00
2019-04-01T07:46:39.042Z,2848.00
2019-04-01T07:47:39.093Z,2860.00
2019-04-01T07:48:39.037Z,2876.00
2019-04-01T07:49:39.049Z,2884.00
2019-04-01T07:50:39.060Z,2900.00
2019-04-01T07:51:39.076Z,2912.00
2019-04-01T07:52:39.177Z,2912.00
2019-04-01T07:53:39.083Z,2936.00
2019-04-01T07:54:39.094Z,2952.00
2019-04-01T07:55:39.111Z,2944.00
2019-04-01T07:56:39.116Z,2964.00
2019-04-01T07:57:39.125Z,2980.00
2019-04-01T07:58:39.177Z,2992.00
2019-04-01T07:59:39.172Z,3008.00
2019-04-01T08:00:39.354Z,3024.00
2019-04-01T08:02:39.681Z,3044.00
2019-04-01T08:03:41.910Z,3032.00
2019-04-01T08:07:39.247Z,3100.00
2019-04-01T08:08:39.272Z,3116.00
2019-04-01T08:09:39.398Z,3120.00
2019-04-01T08:10:39.757Z,3124.00
2019-04-01T08:11:39.953Z,3128.00
2019-04-01T08:12:39.372Z,3140.00
2019-04-01T08:13:39.574Z,3140.00
2019-04-01T08:14:40.724Z,3148.00
2019-04-01T08:15:40.044Z,3168.00
2019-04-01T08:16:40.031Z,3164.00
2019-04-01T08:17:39.637Z,3168.00
2019-04-01T08:19:39.361Z,3184.00
2019-04-01T08:20:39.651Z,3196.00
2019-04-01T08:21:40.340Z,3196.00
2019-04-01T08:22:43.020Z,3212.00
2019-04-01T08:23:39.820Z,3212.00
2019-04-01T08:25:39.606Z,3224.00
2019-04-01T08:27:40.316Z,3220.00
2019-04-01T08:28:41.271Z,3236.00
2019-04-01T08:29:40.472Z,3244.00
2019-04-01T08:30:40.379Z,3244.00
2019-04-01T08:31:40.029Z,3256.00
2019-04-01T08:32:39.497Z,3248.00
2019-04-01T08:33:39.607Z,3272.00
2019-04-01T08:34:39.623Z,3276.00
2019-04-01T08:36:40.000Z,3284.00
2019-04-01T08:37:40.473Z,3264.00
2019-04-01T08:38:40.632Z,3292.00
2019-04-01T08:39:39.920Z,3308.00
2019-04-01T08:40:40.423Z,3308.00
2019-04-01T08:41:40.361Z,3332.00
2019-04-01T08:42:40.051Z,3328.00
2019-04-01T08:43:41.531Z,3336.00
2019-04-01T08:45:41.551Z,3348.00
2019-04-01T08:47:40.807Z,3372.00
2019-04-01T08:48:40.968Z,3384.00
2019-04-01T08:49:39.751Z,3372.00
2019-04-01T08:51:41.102Z,3360.00
2019-04-01T08:52:39.987Z,3364.00
2019-04-01T08:53:39.956Z,3360.00
2019-04-01T08:54:39.989Z,3372.00
2019-04-01T08:55:39.789Z,3376.00
2019-04-01T08:56:39.867Z,3368.00
2019-04-01T08:57:40.832Z,3380.00
2019-04-01T08:58:39.847Z,3380.00
2019-04-01T08:59:41.185Z,3388.00
2019-04-01T09:00:39.883Z,3396.00
2019-04-01T09:02:40.266Z,3400.00
2019-04-01T09:03:41.291Z,3400.00
2019-04-01T09:04:39.924Z,3400.00
2019-04-01T09:05:40.687Z,3408.00
2019-04-01T09:06:39.865Z,3416.00
2019-04-01T09:10:40.438Z,3412.00
2019-04-01T09:13:40.437Z,3408.00
2019-04-01T09:14:40.025Z,3412.00
2019-04-01T09:15:41.424Z,3420.00
2019-04-01T09:16:40.901Z,3420.00
2019-04-01T09:18:40.291Z,3436.00
2019-04-01T09:21:40.030Z,3492.00
2019-04-01T09:22:41.948Z,3504.00
2019-04-01T09:24:40.156Z,3532.00
2019-04-01T09:25:40.501Z,3528.00
2019-04-01T09:26:40.093Z,3544.00
2019-04-01T09:27:40.228Z,3556.00
2019-04-01T09:28:40.166Z,3556.00
2019-04-01T09:29:40.275Z,3576.00
2019-04-01T09:31:40.371Z,3596.00
2019-04-01T09:32:40.428Z,3612.00
2019-04-01T09:33:40.416Z,3600.00
2019-04-01T09:34:40.614Z,3656.00
2019-04-01T09:35:40.995Z,3664.00
2019-04-01T09:36:40.895Z,3680.00
2019-04-01T09:37:40.653Z,3700.00
2019-04-01T09:38:41.451Z,3676.00
2019-04-01T09:39:40.250Z,3720.00
2019-04-01T09:41:40.406Z,3712.00
2019-04-01T09:42:41.416Z,3748.00
2019-04-01T09:43:40.808Z,3780.00
2019-04-01T09:44:41.166Z,3788.00
2019-04-01T09:45:40.727Z,3796.00
2019-04-01T09:46:41.417Z,3892.00
2019-04-01T09:47:40.439Z,3804.00
2019-04-01T09:48:42.526Z,3800.00
2019-04-01T09:50:41.003Z,3744.00
2019-04-01T09:52:40.450Z,3824.00
2019-04-01T09:57:40.432Z,3860.00
2019-04-01T09:58:40.446Z,3840.00
2019-04-01T09:59:40.506Z,3864.00
2019-04-01T10:00:40.482Z,3864.00
2019-04-01T10:01:40.527Z,3876.00
2019-04-01T10:02:40.490Z,3904.00
2019-04-01T10:03:40.509Z,3916.00
2019-04-01T10:04:40.532Z,3908.00
2019-04-01T10:05:40.655Z,3908.00
2019-04-01T10:06:40.606Z,3900.00
2019-04-01T10:07:40.674Z,3904.00
2019-04-01T10:08:42.329Z,3904.00
2019-04-01T10:09:40.602Z,3884.00
2019-04-01T10:10:40.586Z,3900.00
2019-04-01T10:11:40.595Z,3900.00
2019-04-01T10:12:40.613Z,3876.00
2019-04-01T10:13:40.628Z,3904.00
2019-04-01T10:14:40.639Z,3912.00
2019-04-01T10:15:40.645Z,3912.00
2019-04-01T10:16:40.655Z,3924.00
2019-04-01T10:17:40.671Z,3900.00
2019-04-01T10:18:40.695Z,3916.00
2019-04-01T10:19:40.702Z,3832.00
2019-04-01T10:20:40.702Z,3908.00
2019-04-01T10:21:40.721Z,3928.00
2019-04-01T10:22:40.729Z,3956.00
2019-04-01T10:23:40.746Z,3956.00
2019-04-01T10:24:40.755Z,3964.00
2019-04-01T10:25:40.769Z,3956.00
2019-04-01T10:26:40.785Z,3964.00
2019-04-01T10:27:40.794Z,3968.00
2019-04-01T10:28:40.810Z,3956.00
2019-04-01T10:29:40.814Z,3956.00
2019-04-01T10:30:40.833Z,3952.00
2019-04-01T10:31:40.848Z,3968.00
2019-04-01T10:32:40.876Z,3960.00
2019-04-01T10:33:40.861Z,3960.00
2019-04-01T10:34:40.889Z,3948.00
2019-04-01T10:35:40.885Z,3952.00
2019-04-01T10:36:40.900Z,3936.00
2019-04-01T10:37:40.918Z,3928.00
2019-04-01T10:38:40.926Z,3760.00
2019-04-01T10:39:40.933Z,3932.00
2019-04-01T10:40:40.954Z,3928.00
2019-04-01T10:41:40.970Z,3924.00
2019-04-01T10:42:40.975Z,3880.00
2019-04-01T10:43:40.985Z,3932.00
2019-04-01T10:44:40.999Z,3920.00
2019-04-01T10:45:41.019Z,3904.00
2019-04-01T10:46:41.057Z,3920.00
2019-04-01T10:47:41.054Z,3904.00
2019-04-01T10:48:41.090Z,3880.00
2019-04-01T10:49:41.095Z,3908.00
2019-04-01T10:50:41.144Z,3908.00
2019-04-01T10:51:41.154Z,3912.00
2019-04-01T10:52:44.044Z,3880.00
2019-04-01T10:53:41.170Z,3908.00
2019-04-01T10:54:41.195Z,3900.00
2019-04-01T10:55:41.135Z,3896.00
2019-04-01T10:56:41.186Z,3892.00
2019-04-01T10:57:43.547Z,3888.00
2019-04-01T10:58:41.215Z,3876.00
2019-04-01T10:59:41.279Z,3868.00
2019-04-01T11:00:41.237Z,3872.00
2019-04-01T11:01:41.227Z,3876.00
2019-04-01T11:02:41.246Z,3828.00
2019-04-01T11:03:41.374Z,3868.00
2019-04-01T11:04:41.370Z,3840.00
2019-04-01T11:05:41.294Z,3868.00
2019-04-01T11:06:41.338Z,3808.00
2019-04-01T11:07:41.349Z,3848.00
2019-04-01T11:08:41.368Z,3844.00
2019-04-01T11:09:41.312Z,3844.00
2019-04-01T11:10:41.319Z,3824.00
2019-04-01T11:11:41.337Z,3848.00
2019-04-01T11:12:41.343Z,4120.00
2019-04-01T11:13:41.357Z,4100.00
2019-04-01T11:14:41.367Z,4128.00
2019-04-01T11:15:41.384Z,4120.00
2019-04-01T11:16:41.398Z,4012.00
2019-04-01T11:17:41.413Z,4116.00
2019-04-01T11:18:41.426Z,4124.00
2019-04-01T11:19:41.436Z,4136.00
2019-04-01T11:20:41.442Z,4140.00
2019-04-01T11:21:41.454Z,4152.00
2019-04-01T11:22:41.466Z,4148.00
2019-04-01T11:23:41.481Z,4148.00
2019-04-01T11:24:41.495Z,4168.00
2019-04-01T11:25:41.512Z,4160.00
2019-04-01T11:26:41.524Z,4156.00
2019-04-01T11:27:41.531Z,4148.00
2019-04-01T11:28:41.747Z,4128.00
2019-04-01T11:29:41.559Z,4160.00
2019-04-01T11:30:41.599Z,4128.00
2019-04-01T11:31:41.615Z,4152.00
2019-04-01T11:32:41.602Z,4160.00
2019-04-01T11:33:41.616Z,4156.00
2019-04-01T11:34:41.641Z,4152.00
2019-04-01T11:35:41.684Z,4156.00
2019-04-01T11:36:42.267Z,4160.00
2019-04-01T11:37:41.938Z,4164.00
2019-04-01T11:38:41.677Z,4152.00
2019-04-01T11:39:41.724Z,4172.00
2019-04-01T11:40:41.700Z,4192.00
2019-04-01T11:41:41.729Z,4176.00
2019-04-01T11:42:41.745Z,4176.00
2019-04-01T11:43:41.835Z,4168.00
2019-04-01T11:44:41.774Z,4176.00
2019-04-01T11:45:41.881Z,4184.00
2019-04-01T11:46:41.811Z,4180.00
2019-04-01T11:47:41.813Z,4180.00
2019-04-01T11:48:41.852Z,4188.00
2019-04-01T11:49:41.863Z,4196.00
2019-04-01T11:50:41.845Z,4192.00
2019-04-01T11:51:41.926Z,4188.00
2019-04-01T11:52:41.927Z,4196.00
2019-04-01T11:53:41.862Z,4196.00
2019-04-01T11:54:41.874Z,4204.00
2019-04-01T11:55:41.888Z,4220.00
2019-04-01T11:56:41.898Z,4208.00
2019-04-01T11:57:41.912Z,4208.00
2019-04-01T11:58:41.936Z,4236.00
2019-04-01T11:59:41.940Z,4224.00
2019-04-01T12:00:41.956Z,4260.00
2019-04-01T12:01:41.962Z,4272.00
2019-04-01T12:02:41.980Z,4260.00
2019-04-01T12:03:41.991Z,4260.00
2019-04-01T12:04:42.008Z,4144.00
2019-04-01T12:05:42.016Z,4272.00
2019-04-01T12:06:42.034Z,4260.00
2019-04-01T12:07:42.048Z,4280.00
2019-04-01T12:08:42.063Z,4288.00
2019-04-01T12:09:42.068Z,4292.00
2019-04-01T12:10:42.084Z,4304.00
2019-04-01T12:11:42.092Z,4296.00
2019-04-01T12:12:42.101Z,4272.00
2019-04-01T12:13:42.116Z,4188.00
2019-04-01T12:14:42.143Z,4336.00
2019-04-01T12:15:42.143Z,4340.00
2019-04-01T12:16:42.154Z,4336.00
2019-04-01T12:17:42.405Z,4368.00
2019-04-01T12:18:42.180Z,4376.00
2019-04-01T12:19:42.191Z,4380.00
2019-04-01T12:20:42.204Z,4384.00
2019-04-01T12:21:42.228Z,4388.00
2019-04-01T12:22:45.441Z,4392.00
2019-04-01T12:23:42.252Z,4384.00
2019-04-01T12:24:42.256Z,4392.00
2019-04-01T12:25:42.277Z,4412.00
2019-04-01T12:26:42.351Z,4428.00
2019-04-01T12:27:42.296Z,4436.00
2019-04-01T12:28:42.724Z,4468.00
2019-04-01T12:29:42.335Z,4484.00
2019-04-01T12:30:42.339Z,4408.00
2019-04-01T12:31:42.350Z,4492.00
2019-04-01T12:32:42.367Z,4492.00
2019-04-01T12:33:42.376Z,4488.00
2019-04-01T12:34:42.429Z,4508.00
2019-04-01T12:35:42.402Z,4504.00
2019-04-01T12:36:42.416Z,4520.00
2019-04-01T12:37:42.485Z,4520.00
2019-04-01T12:38:42.443Z,4536.00
2019-04-01T12:39:42.459Z,4544.00
2019-04-01T12:40:42.473Z,4528.00
2019-04-01T12:41:42.483Z,4544.00
2019-04-01T12:42:42.546Z,4552.00
2019-04-01T12:43:42.506Z,4548.00
2019-04-01T12:44:42.518Z,4532.00
2019-04-01T12:45:42.532Z,4624.00
2019-04-01T12:46:42.564Z,4516.00
2019-04-01T12:47:43.380Z,4508.00
2019-04-01T12:48:42.590Z,4504.00
2019-04-01T12:49:42.588Z,4488.00
2019-04-01T12:50:42.610Z,4492.00
2019-04-01T12:51:42.615Z,4484.00
2019-04-01T12:52:42.624Z,4492.00
2019-04-01T12:53:42.644Z,4476.00
2019-04-01T12:54:42.659Z,4472.00
2019-04-01T12:55:45.000Z,4472.00
2019-04-01T12:56:42.686Z,4460.00
2019-04-01T12:57:42.695Z,4456.00
2019-04-01T12:58:42.710Z,4476.00
2019-04-01T12:59:45.812Z,4480.00
2019-04-01T13:00:42.748Z,4480.00
2019-04-01T13:01:42.746Z,4480.00
2019-04-01T13:02:42.767Z,4484.00
2019-04-01T13:03:42.999Z,4492.00
2019-04-01T13:04:42.792Z,4488.00
2019-04-01T13:05:42.996Z,4492.00
2019-04-01T13:06:42.817Z,4480.00
2019-04-01T13:07:43.048Z,4484.00
2019-04-01T13:08:42.839Z,4484.00
2019-04-01T13:09:42.853Z,4492.00
2019-04-01T13:10:42.864Z,4504.00
2019-04-01T13:11:42.883Z,4532.00
2019-04-01T13:12:42.888Z,4548.00
2019-04-01T13:13:42.953Z,4560.00
2019-04-01T13:14:43.502Z,4564.00
2019-04-01T13:15:42.933Z,4552.00
2019-04-01T13:16:42.945Z,4560.00
2019-04-01T13:17:42.962Z,4548.00
2019-04-01T13:18:42.975Z,4540.00
2019-04-01T13:19:42.986Z,4548.00
2019-04-01T13:20:43.307Z,4524.00
2019-04-01T13:21:43.017Z,4532.00
2019-04-01T13:22:43.028Z,4528.00
2019-04-01T13:23:43.055Z,4524.00
2019-04-01T13:24:43.053Z,4476.00
2019-04-01T13:25:43.072Z,4540.00
2019-04-01T13:26:43.089Z,4532.00
2019-04-01T13:27:43.089Z,4556.00
2019-04-01T13:28:43.104Z,4544.00
2019-04-01T13:29:43.120Z,4556.00
2019-04-01T13:30:43.132Z,4556.00
2019-04-01T13:31:43.141Z,4564.00
2019-04-01T13:32:43.157Z,4616.00
2019-04-01T13:33:43.181Z,4564.00
2019-04-01T13:34:43.192Z,4548.00
2019-04-01T13:35:43.205Z,4548.00
2019-04-01T13:36:43.211Z,4536.00
2019-04-01T13:37:43.221Z,4536.00
2019-04-01T13:38:44.083Z,4504.00
2019-04-01T13:39:43.254Z,4552.00
2019-04-01T13:40:44.275Z,4760.00
2019-04-01T13:41:43.325Z,4992.00
2019-04-01T13:42:43.722Z,10612.00
2019-04-01T13:43:43.302Z,27776.00
2019-04-01T13:44:43.324Z,38112.00
2019-04-01T13:45:43.334Z,41440.00
2019-04-01T13:46:43.346Z,42176.00
2019-04-01T13:47:43.363Z,34176.00
2019-04-01T13:48:56.951Z,14320.00
2019-04-01T13:49:43.394Z,5128.00